Ambrose, Georgia
Current Conditions -  °F | °C
As of 2:15 AM on Wednesday 22 Oct 2014 (Local Time) from KDQH Reporting Station
Clear Clear  
Wind Chill: 59°   Ceiling: Unl
Heat Index: 59°   Visibility: 10mi
Dew Point: 55°   Wind: 7mph
Humidity: 88%   Direction: 360°N
Pressure: 29.99"   Gusts: NA
Location:  31.59°N, 83.01°W
Report Text: KDQH 220615Z AUTO 36006KT 10SM CLR 15/13 A2999 RMK AO2
Loading
Personal Weather Stations






























Interactive Weather Map New forecast layout! Learn more

10-Day Weather Forecast

Advertisements
Track Severe Weather on mobile